Time;durP1;ratioP1;P1;durP2;ratioP2;P2;SDS_P1;SDS_P2;PMS_P1;PMS_P2;Temp;Humidity;BMP_temperature;BMP_pressure;BME280_temperature;BME280_humidity;BME280_pressure;Samples;Min_cycle;Max_cycle;Signal;HPM_P1;HPM_P2
2022/01/30 07:17:01;;;;;;;;;9.00;9.00;;;;;;;;5542701;23;45933;-94
2022/01/30 07:19:26;;;;;;;;;8.33;8.33;;;;;;;;4951764;28;45384;-96
2022/01/30 07:21:52;;;;;;;;;7.33;5.00;;;;;;;;4957051;28;45284;-95
2022/01/30 07:24:17;;;;;;;;;6.33;4.67;;;;;;;;4957254;28;45490;-95
2022/01/30 07:26:42;;;;;;;;;9.00;6.00;;;;;;;;4947926;28;47101;-95
2022/01/30 07:29:07;;;;;;;;;9.00;8.67;;;;;;;;4948983;28;45320;-94
2022/01/30 07:31:33;;;;;;;;;12.33;9.67;;;;;;;;4957700;28;45306;-95
2022/01/30 07:33:59;;;;;;;;;19.33;13.00;;;;;;;;4952809;28;45548;-92
2022/01/30 07:36:25;;;;;;;;;14.00;14.00;;;;;;;;4973596;28;46448;-92
2022/01/30 07:38:50;;;;;;;;;13.00;10.33;;;;;;;;4940958;28;45458;-91
2022/01/30 07:41:15;;;;;;;;;18.67;14.00;;;;;;;;4940414;28;45490;-92
2022/01/30 07:43:41;;;;;;;;;18.00;12.00;;;;;;;;4949513;28;45474;-92
2022/01/30 07:46:06;;;;;;;;;13.33;11.00;;;;;;;;4977678;28;46879;-92
2022/01/30 07:48:32;;;;;;;;;11.67;8.00;;;;;;;;4949610;28;46003;-92
2022/01/30 07:50:57;;;;;;;;;19.00;17.00;;;;;;;;4962675;28;45408;-92
2022/01/30 07:53:22;;;;;;;;;15.67;15.67;;;;;;;;4959658;28;45470;-92
2022/01/30 07:55:47;;;;;;;;;12.00;11.33;;;;;;;;4955452;28;48233;-90
2022/01/30 07:58:13;;;;;;;;;10.33;8.67;;;;;;;;4952844;28;45762;-91
2022/01/30 08:00:38;;;;;;;;;7.33;7.00;;;;;;;;4959044;28;46285;-91
2022/01/30 08:03:04;;;;;;;;;10.33;8.67;;;;;;;;4953028;28;45569;-92
2022/01/30 08:05:29;;;;;;;;;16.67;13.67;;;;;;;;4948800;28;46986;-92
2022/01/30 08:07:54;;;;;;;;;11.00;8.33;;;;;;;;4954132;28;45383;-92
2022/01/30 08:10:19;;;;;;;;;10.33;9.33;;;;;;;;4959267;28;46418;-91
2022/01/30 08:12:45;;;;;;;;;12.67;12.67;;;;;;;;4940924;28;45376;-89
2022/01/30 08:15:10;;;;;;;;;6.33;5.67;;;;;;;;4943091;28;48483;-88
2022/01/30 08:17:37;;;;;;;;;14.67;11.33;;;;;;;;4940726;28;45558;-93
2022/01/30 08:20:03;;;;;;;;;10.00;8.33;;;;;;;;4959270;28;45549;-90
2022/01/30 08:22:30;;;;;;;;;9.00;8.00;;;;;;;;4956628;28;45545;-95
2022/01/30 08:24:55;;;;;;;;;11.67;8.67;;;;;;;;4958927;28;47422;-94
2022/01/30 08:27:20;;;;;;;;;7.00;6.00;;;;;;;;4959646;28;45561;-92
2022/01/30 08:29:45;;;;;;;;;12.33;7.33;;;;;;;;4957484;28;45527;-91
2022/01/30 08:32:11;;;;;;;;;10.33;6.00;;;;;;;;4950731;28;45633;-89
2022/01/30 08:34:36;;;;;;;;;11.33;9.67;;;;;;;;4970516;28;46248;-92
2022/01/30 08:37:02;;;;;;;;;7.33;6.67;;;;;;;;4957859;28;45335;-93
2022/01/30 08:39:27;;;;;;;;;6.33;4.00;;;;;;;;4951633;28;45508;-90
2022/01/30 08:41:52;;;;;;;;;7.00;6.67;;;;;;;;4952897;28;45439;-91
2022/01/30 08:44:17;;;;;;;;;8.33;5.67;;;;;;;;4960571;28;47286;-91
2022/01/30 08:46:42;;;;;;;;;5.67;5.67;;;;;;;;4952292;28;45925;-91
2022/01/30 08:49:08;;;;;;;;;6.33;6.00;;;;;;;;4945397;28;45332;-93
2022/01/30 08:51:33;;;;;;;;;6.00;6.00;;;;;;;;4953423;28;45398;-92
2022/01/30 08:53:58;;;;;;;;;7.67;6.00;;;;;;;;4942125;28;47287;-93
2022/01/30 08:56:23;;;;;;;;;7.67;7.00;;;;;;;;4975653;28;45341;-91
2022/01/30 08:58:49;;;;;;;;;6.67;5.67;;;;;;;;4959949;28;45359;-93
2022/01/30 09:01:17;;;;;;;;;6.00;3.00;;;;;;;;4958463;28;45382;-95
2022/01/30 09:03:43;;;;;;;;;7.33;6.00;;;;;;;;4945263;28;48135;-93
2022/01/30 09:06:09;;;;;;;;;5.00;4.33;;;;;;;;4956991;28;46100;-91
2022/01/30 09:08:34;;;;;;;;;8.33;6.00;;;;;;;;4956563;28;45367;-93
2022/01/30 09:10:59;;;;;;;;;4.67;3.00;;;;;;;;4950355;28;45556;-93
2022/01/30 09:13:25;;;;;;;;;8.00;4.00;;;;;;;;4956334;28;47125;-96
2022/01/30 09:15:56;;;;;;;;;5.00;4.00;;;;;;;;4960928;28;45293;-95
2022/01/30 09:18:22;;;;;;;;;7.00;6.67;;;;;;;;4954894;28;45426;-92
2022/01/30 09:20:47;;;;;;;;;5.00;3.67;;;;;;;;4965862;28;45651;-91
2022/01/30 09:23:13;;;;;;;;;4.00;3.33;;;;;;;;4966040;28;46361;-91
2022/01/30 09:25:39;;;;;;;;;7.00;3.00;;;;;;;;4945324;28;45739;-93
2022/01/30 09:28:04;;;;;;;;;3.67;2.00;;;;;;;;4951182;28;45794;-94
2022/01/30 09:30:29;;;;;;;;;6.00;2.67;;;;;;;;4941864;28;45537;-92
2022/01/30 09:32:55;;;;;;;;;4.33;4.33;;;;;;;;4952828;28;47890;-90
2022/01/30 09:35:20;;;;;;;;;7.00;4.67;;;;;;;;4955181;28;45811;-92
2022/01/30 09:37:45;;;;;;;;;6.67;3.33;;;;;;;;4955026;28;45491;-91
2022/01/30 09:40:10;;;;;;;;;8.00;5.67;;;;;;;;4941909;28;45965;-92
2022/01/30 09:42:36;;;;;;;;;8.67;3.00;;;;;;;;4954210;28;47147;-91
2022/01/30 09:45:04;;;;;;;;;7.67;4.00;;;;;;;;4973005;28;45487;-91
2022/01/30 09:47:29;;;;;;;;;7.33;4.33;;;;;;;;4952975;28;45450;-95
2022/01/30 09:49:55;;;;;;;;;3.00;2.67;;;;;;;;4950827;28;45445;-94
2022/01/30 09:52:21;;;;;;;;;2.67;2.67;;;;;;;;4957256;28;47293;-93
2022/01/30 09:54:47;;;;;;;;;8.67;4.33;;;;;;;;4970436;28;45387;-92
2022/01/30 09:57:13;;;;;;;;;5.00;3.00;;;;;;;;4950094;28;45411;-92
2022/01/30 09:59:38;;;;;;;;;8.33;3.00;;;;;;;;4951178;28;45315;-92
2022/01/30 10:02:04;;;;;;;;;6.67;3.33;;;;;;;;4959886;28;45307;-92
2022/01/30 10:04:30;;;;;;;;;5.67;4.33;;;;;;;;4954532;28;45398;-94
2022/01/30 10:06:59;;;;;;;;;9.00;6.00;;;;;;;;4951692;28;46498;-95
2022/01/30 10:09:32;;;;;;;;;8.00;3.33;;;;;;;;4958861;28;45524;-94
2022/01/30 10:12:19;;;;;;;;;8.00;4.00;;;;;;;;4945435;28;47325;-95
2022/01/30 10:14:49;;;;;;;;;8.33;4.00;;;;;;;;4949215;28;45772;-96
2022/01/30 10:17:24;;;;;;;;;5.00;3.00;;;;;;;;4952772;28;45333;-96
2022/01/30 10:20:09;;;;;;;;;7.67;4.00;;;;;;;;4961179;28;45502;-96
2022/01/30 10:22:37;;;;;;;;;3.00;3.00;;;;;;;;4977484;28;45807;-96
2022/01/30 10:28:05;;;;;;;;;2.00;1.67;;;;;;;;5072767;23;45716;-92
2022/01/30 10:30:38;;;;;;;;;8.67;4.67;;;;;;;;4971626;28;45552;-94
2022/01/30 10:33:03;;;;;;;;;8.33;4.33;;;;;;;;4976878;28;47215;-94
2022/01/30 10:35:29;;;;;;;;;7.33;6.00;;;;;;;;4977208;28;45659;-93
2022/01/30 10:37:54;;;;;;;;;13.67;9.00;;;;;;;;4984363;28;51758;-94
2022/01/30 10:40:34;;;;;;;;;4.67;3.33;;;;;;;;4995685;28;45301;-94
2022/01/30 10:42:59;;;;;;;;;5.67;5.33;;;;;;;;4997696;28;47954;-93
2022/01/30 10:45:33;;;;;;;;;7.33;4.67;;;;;;;;4990534;28;45604;-95
2022/01/30 10:48:18;;;;;;;;;7.00;4.00;;;;;;;;5025644;28;45020;-95
2022/01/30 10:50:47;;;;;;;;;7.00;3.33;;;;;;;;5017572;28;44770;-95
2022/01/30 10:53:21;;;;;;;;;7.67;6.33;;;;;;;;5237896;22;48090;-96
2022/01/30 10:55:50;;;;;;;;;5.67;5.67;;;;;;;;4995112;28;45307;-96
2022/01/30 10:58:18;;;;;;;;;5.67;4.00;;;;;;;;5014944;22;46501;-96
2022/01/30 11:00:47;;;;;;;;;7.33;4.67;;;;;;;;4982786;28;45283;-96
2022/01/30 11:03:32;;;;;;;;;8.00;5.67;;;;;;;;4982916;28;46494;-96
2022/01/30 11:05:59;;;;;;;;;7.33;6.00;;;;;;;;5031373;22;45416;-96
2022/01/30 11:08:26;;;;;;;;;7.67;7.00;;;;;;;;4964069;28;45811;-96
2022/01/30 11:11:01;;;;;;;;;7.67;7.00;;;;;;;;4956137;28;45734;-94
2022/01/30 11:13:32;;;;;;;;;7.00;5.33;;;;;;;;4948498;28;48110;-94
2022/01/30 11:16:55;;;;;;;;;8.00;4.00;;;;;;;;4939196;28;45308;-93
2022/01/30 11:18:47;;;;;;;;;8.00;7.00;;;;;;;;4970540;28;45383;-93
2022/01/30 11:21:12;;;;;;;;;8.00;6.67;;;;;;;;4964721;28;45800;-96
2022/01/30 11:23:39;;;;;;;;;3.67;3.67;;;;;;;;4962247;28;47074;-94
2022/01/30 11:26:05;;;;;;;;;7.33;5.33;;;;;;;;4965224;28;45095;-96
2022/01/30 11:28:31;;;;;;;;;5.67;4.00;;;;;;;;4969600;28;44973;-96
2022/01/30 11:30:56;;;;;;;;;4.67;4.33;;;;;;;;4964850;28;45257;-94
2022/01/30 11:33:22;;;;;;;;;11.67;7.67;;;;;;;;4973324;28;48105;-96
2022/01/30 11:35:51;;;;;;;;;8.00;6.67;;;;;;;;5077188;23;45392;-96
2022/01/30 11:38:17;;;;;;;;;7.33;6.00;;;;;;;;4986353;28;45878;-95
2022/01/30 11:41:02;;;;;;;;;8.67;7.33;;;;;;;;4954483;28;45684;-95
2022/01/30 11:43:27;;;;;;;;;8.33;8.33;;;;;;;;4955615;28;45478;-96
2022/01/30 11:46:11;;;;;;;;;10.00;9.00;;;;;;;;4974552;28;44942;-96
2022/01/30 11:56:41;;;;;;;;;9.00;7.00;;;;;;;;5488131;22;45745;-96
2022/01/30 11:59:29;;;;;;;;;8.67;6.67;;;;;;;;4953517;28;45472;-96
2022/01/30 12:02:14;;;;;;;;;7.67;7.00;;;;;;;;4957349;28;45357;-94
2022/01/30 12:04:54;;;;;;;;;10.00;9.00;;;;;;;;4960445;28;47230;-93
2022/01/30 12:07:35;;;;;;;;;10.00;8.33;;;;;;;;4958383;28;45739;-91
2022/01/30 12:10:16;;;;;;;;;7.67;7.00;;;;;;;;4958940;28;45451;-94
2022/01/30 12:12:51;;;;;;;;;13.67;10.00;;;;;;;;4949940;28;45526;-95
2022/01/30 12:15:35;;;;;;;;;13.00;10.33;;;;;;;;4956095;28;47357;-95
2022/01/30 12:18:02;;;;;;;;;9.00;8.00;;;;;;;;4972588;28;45435;-96
2022/01/30 12:20:32;;;;;;;;;8.33;7.33;;;;;;;;4961188;28;45765;-95
2022/01/30 12:22:57;;;;;;;;;5.00;5.00;;;;;;;;4952056;28;46717;-94
2022/01/30 12:25:25;;;;;;;;;8.33;6.33;;;;;;;;4957767;28;47218;-96
2022/01/30 12:27:51;;;;;;;;;7.33;5.00;;;;;;;;4969565;28;45430;-96
2022/01/30 12:30:33;;;;;;;;;8.00;6.33;;;;;;;;4957220;28;45550;-95
2022/01/30 12:32:58;;;;;;;;;9.00;7.33;;;;;;;;4955195;28;45323;-94
2022/01/30 12:35:23;;;;;;;;;9.67;9.33;;;;;;;;4958079;28;47980;-94
2022/01/30 12:37:49;;;;;;;;;9.67;8.67;;;;;;;;4979771;28;45324;-94
2022/01/30 12:40:15;;;;;;;;;10.00;6.67;;;;;;;;4959462;28;45600;-94
2022/01/30 12:42:40;;;;;;;;;9.33;8.33;;;;;;;;4953587;28;45202;-94
2022/01/30 12:45:08;;;;;;;;;9.67;7.33;;;;;;;;4950527;28;47096;-93
2022/01/30 12:47:55;;;;;;;;;8.00;8.00;;;;;;;;4963931;28;45557;-92
2022/01/30 12:50:21;;;;;;;;;8.67;6.00;;;;;;;;4974238;28;45674;-93
2022/01/30 12:52:52;;;;;;;;;4.33;4.33;;;;;;;;4949972;28;51684;-92
2022/01/30 12:55:18;;;;;;;;;4.67;4.67;;;;;;;;4975120;28;45448;-94
2022/01/30 12:57:44;;;;;;;;;9.00;5.00;;;;;;;;4953197;28;45544;-95
2022/01/30 13:00:11;;;;;;;;;9.33;5.33;;;;;;;;4962921;28;45617;-94
2022/01/30 13:02:37;;;;;;;;;7.00;7.00;;;;;;;;4946313;28;45467;-94
2022/01/30 13:05:09;;;;;;;;;12.67;5.00;;;;;;;;4959342;28;48662;-94
2022/01/30 13:07:35;;;;;;;;;7.67;5.00;;;;;;;;4955672;28;46075;-95
2022/01/30 13:10:09;;;;;;;;;8.00;5.33;;;;;;;;4959056;28;45773;-92
2022/01/30 13:12:35;;;;;;;;;5.33;4.00;;;;;;;;4959286;28;45470;-95
2022/01/30 13:15:04;;;;;;;;;4.00;4.00;;;;;;;;4947134;28;48181;-95
2022/01/30 13:17:30;;;;;;;;;6.33;6.00;;;;;;;;4951275;28;45648;-96
2022/01/30 13:19:55;;;;;;;;;5.67;5.67;;;;;;;;4956982;28;45679;-93
2022/01/30 13:22:33;;;;;;;;;6.67;5.00;;;;;;;;4950650;28;45435;-93
2022/01/30 13:24:59;;;;;;;;;10.67;7.67;;;;;;;;4947511;28;48319;-94
2022/01/30 13:27:24;;;;;;;;;6.33;4.67;;;;;;;;4964306;28;45467;-96
2022/01/30 13:29:53;;;;;;;;;11.00;6.67;;;;;;;;4961314;28;45353;-95
2022/01/30 13:32:18;;;;;;;;;8.67;8.33;;;;;;;;4957888;28;45668;-95
2022/01/30 13:34:45;;;;;;;;;7.67;4.67;;;;;;;;4945164;28;48428;-96
2022/01/30 13:37:15;;;;;;;;;7.00;5.33;;;;;;;;4962562;28;45443;-95
2022/01/30 13:39:48;;;;;;;;;7.33;4.00;;;;;;;;4950934;28;45452;-95
2022/01/30 13:42:33;;;;;;;;;6.33;6.33;;;;;;;;4956155;28;45303;-95
2022/01/30 13:47:49;;;;;;;;;6.00;6.00;;;;;;;;4965173;28;45351;-95
2022/01/30 13:50:15;;;;;;;;;5.33;5.33;;;;;;;;4949430;28;45512;-95
2022/01/30 13:52:41;;;;;;;;;6.67;6.00;;;;;;;;4958004;28;44917;-96
2022/01/30 13:55:07;;;;;;;;;6.00;4.00;;;;;;;;4958491;28;47411;-95
2022/01/30 13:57:37;;;;;;;;;5.00;5.00;;;;;;;;4956238;28;45981;-96
2022/01/30 14:00:13;;;;;;;;;11.00;7.67;;;;;;;;4949746;28;45402;-94
2022/01/30 14:02:52;;;;;;;;;9.33;5.00;;;;;;;;4959859;28;45296;-95
2022/01/30 14:05:28;;;;;;;;;9.00;7.67;;;;;;;;4960317;28;47633;-96
2022/01/30 14:07:54;;;;;;;;;7.00;7.00;;;;;;;;4960772;28;45435;-96
2022/01/30 14:10:22;;;;;;;;;8.00;8.00;;;;;;;;4955176;28;45798;-96
2022/01/30 14:12:49;;;;;;;;;7.00;5.33;;;;;;;;4959107;28;45453;-96
2022/01/30 14:15:18;;;;;;;;;9.33;7.00;;;;;;;;4962666;28;47369;-96
2022/01/30 14:17:45;;;;;;;;;4.00;4.00;;;;;;;;4971667;28;45024;-96
2022/01/30 14:20:15;;;;;;;;;9.00;5.00;;;;;;;;4939773;28;45415;-96
2022/01/30 14:22:43;;;;;;;;;8.67;6.67;;;;;;;;4977841;28;44787;-96
2022/01/30 14:25:13;;;;;;;;;7.33;4.33;;;;;;;;4973036;28;45241;-96
2022/01/30 14:27:39;;;;;;;;;12.33;9.00;;;;;;;;4967943;28;44809;-96
2022/01/30 14:30:09;;;;;;;;;9.33;5.00;;;;;;;;4975053;28;44809;-96
2022/01/30 14:32:36;;;;;;;;;8.00;5.00;;;;;;;;4997547;28;44842;-96
2022/01/30 14:35:06;;;;;;;;;3.00;3.00;;;;;;;;4969759;28;45454;-96
2022/01/30 14:37:32;;;;;;;;;5.00;3.00;;;;;;;;4964051;28;52103;-96
2022/01/30 14:39:59;;;;;;;;;9.00;7.00;;;;;;;;4974287;28;45217;-96
2022/01/30 14:44:59;;;;;;;;;7.00;4.00;;;;;;;;5023989;23;46795;-96
2022/01/30 14:47:25;;;;;;;;;8.00;4.33;;;;;;;;4999530;28;45398;-93
2022/01/30 14:49:50;;;;;;;;;6.33;4.00;;;;;;;;5020143;28;45412;-94
2022/01/30 14:52:16;;;;;;;;;10.33;4.33;;;;;;;;5019732;28;45419;-95
2022/01/30 14:54:42;;;;;;;;;5.33;4.33;;;;;;;;4967796;28;47195;-95
2022/01/30 14:57:07;;;;;;;;;8.33;5.00;;;;;;;;4995512;28;45191;-94
2022/01/30 14:59:32;;;;;;;;;8.00;5.33;;;;;;;;4997649;28;45342;-95
2022/01/30 15:02:10;;;;;;;;;7.33;5.67;;;;;;;;4994601;28;45452;-93
2022/01/30 15:04:35;;;;;;;;;5.00;5.00;;;;;;;;4989956;28;47411;-94
2022/01/30 15:07:03;;;;;;;;;9.00;7.00;;;;;;;;5001558;28;45551;-95
2022/01/30 15:09:30;;;;;;;;;9.00;4.67;;;;;;;;5022179;28;44812;-95
2022/01/30 15:11:57;;;;;;;;;6.33;5.00;;;;;;;;5011437;28;44819;-93
2022/01/30 15:14:25;;;;;;;;;7.00;4.00;;;;;;;;5012671;28;48210;-92
2022/01/30 15:16:51;;;;;;;;;4.00;4.00;;;;;;;;5008440;28;45334;-89
2022/01/30 15:19:17;;;;;;;;;7.33;7.33;;;;;;;;5001774;28;45465;-93
2022/01/30 15:21:43;;;;;;;;;5.00;4.00;;;;;;;;5000731;28;45524;-96
2022/01/30 15:24:09;;;;;;;;;5.00;5.00;;;;;;;;4995592;28;46935;-93
2022/01/30 15:26:34;;;;;;;;;6.00;4.33;;;;;;;;5000685;28;45711;-93
2022/01/30 15:29:00;;;;;;;;;6.33;4.00;;;;;;;;5018341;28;45712;-89
2022/01/30 15:31:25;;;;;;;;;7.67;4.00;;;;;;;;4986523;28;46308;-94
2022/01/30 15:33:51;;;;;;;;;3.00;3.00;;;;;;;;4998087;28;47471;-95
2022/01/30 15:36:16;;;;;;;;;7.67;4.33;;;;;;;;5001581;28;45449;-94
2022/01/30 15:38:41;;;;;;;;;4.67;4.67;;;;;;;;4982477;28;45330;-94
2022/01/30 15:41:07;;;;;;;;;5.00;3.00;;;;;;;;5020633;28;45541;-91
2022/01/30 15:43:34;;;;;;;;;6.33;4.67;;;;;;;;4998224;28;47484;-94
2022/01/30 15:51:30;;;;;;;;;8.67;6.00;;;;;;;;5004344;28;45414;-91
2022/01/30 15:53:56;;;;;;;;;3.67;3.00;;;;;;;;4996095;28;47142;-94
2022/01/30 15:56:21;;;;;;;;;8.00;4.67;;;;;;;;5005123;28;45756;-91
2022/01/30 15:58:47;;;;;;;;;7.67;5.33;;;;;;;;4989907;28;45567;-91
2022/01/30 16:01:12;;;;;;;;;4.33;4.33;;;;;;;;5007870;28;47138;-90
2022/01/30 16:03:37;;;;;;;;;5.00;5.00;;;;;;;;5009620;28;45458;-91
2022/01/30 16:06:02;;;;;;;;;8.00;8.00;;;;;;;;4993210;28;45515;-90
2022/01/30 16:08:31;;;;;;;;;9.67;8.00;;;;;;;;4990336;28;45484;-92
2022/01/30 16:11:11;;;;;;;;;9.67;7.33;;;;;;;;5000767;28;45448;-92
2022/01/30 16:16:19;;;;;;;;;16.00;10.00;;;;;;;;5001814;28;45505;-93
2022/01/30 16:18:45;;;;;;;;;15.33;11.67;;;;;;;;4991935;28;45391;-93
2022/01/30 16:21:10;;;;;;;;;16.00;14.00;;;;;;;;4993659;28;45762;-92
2022/01/30 16:23:35;;;;;;;;;29.00;27.33;;;;;;;;4985881;28;47242;-94
2022/01/30 16:26:00;;;;;;;;;25.67;24.67;;;;;;;;4990759;28;45757;-94
2022/01/30 16:28:26;;;;;;;;;19.67;19.33;;;;;;;;5004196;28;45579;-93
2022/01/30 16:30:51;;;;;;;;;16.67;11.33;;;;;;;;5007944;28;45354;-92
2022/01/30 16:33:16;;;;;;;;;9.67;9.67;;;;;;;;4995106;28;48787;-93
2022/01/30 16:35:41;;;;;;;;;14.00;10.33;;;;;;;;4991409;28;45602;-92
2022/01/30 16:38:07;;;;;;;;;13.00;9.33;;;;;;;;4995599;28;45407;-92
2022/01/30 16:40:32;;;;;;;;;12.67;10.00;;;;;;;;5007513;28;45503;-91
2022/01/30 16:42:57;;;;;;;;;11.00;8.67;;;;;;;;4989938;28;47091;-90
2022/01/30 16:45:32;;;;;;;;;8.00;8.00;;;;;;;;5002504;28;45395;-93
2022/01/30 16:48:03;;;;;;;;;10.67;10.67;;;;;;;;4986546;28;45349;-93
2022/01/30 16:50:30;;;;;;;;;10.00;9.33;;;;;;;;5005142;28;45397;-93
2022/01/30 16:52:55;;;;;;;;;9.00;9.00;;;;;;;;4994350;28;47622;-93
2022/01/30 16:55:21;;;;;;;;;11.67;10.33;;;;;;;;4992910;28;45924;-91
2022/01/30 16:57:46;;;;;;;;;15.33;13.00;;;;;;;;5012294;28;45479;-92
2022/01/30 17:00:13;;;;;;;;;13.33;12.67;;;;;;;;4984751;28;45923;-92
2022/01/30 17:02:38;;;;;;;;;11.33;11.00;;;;;;;;4988585;28;52190;-94
2022/01/30 17:05:04;;;;;;;;;12.00;10.33;;;;;;;;5002489;28;45552;-92
2022/01/30 17:07:30;;;;;;;;;16.00;11.00;;;;;;;;5010429;28;45479;-93
2022/01/30 17:09:55;;;;;;;;;9.00;8.67;;;;;;;;4986703;28;45488;-92
2022/01/30 17:12:32;;;;;;;;;8.00;8.00;;;;;;;;4994608;28;48059;-95
2022/01/30 17:15:01;;;;;;;;;9.67;9.67;;;;;;;;4985501;28;45633;-94
2022/01/30 17:17:27;;;;;;;;;8.67;7.67;;;;;;;;5011131;28;45415;-92
2022/01/30 17:19:53;;;;;;;;;14.00;11.00;;;;;;;;4994408;28;45906;-96
2022/01/30 17:22:19;;;;;;;;;12.00;9.00;;;;;;;;5002691;28;45636;-94
2022/01/30 17:24:47;;;;;;;;;17.67;13.00;;;;;;;;4987469;28;45828;-90
2022/01/30 17:27:12;;;;;;;;;10.33;5.00;;;;;;;;4983810;28;45525;-92
2022/01/30 17:29:38;;;;;;;;;18.67;13.67;;;;;;;;4997332;28;45653;-91
2022/01/30 17:32:03;;;;;;;;;19.67;13.67;;;;;;;;5002644;28;45524;-91
2022/01/30 17:34:28;;;;;;;;;14.67;10.33;;;;;;;;4989980;28;45563;-91
2022/01/30 17:36:53;;;;;;;;;13.67;11.67;;;;;;;;4987866;28;45881;-90
2022/01/30 17:39:19;;;;;;;;;12.67;11.67;;;;;;;;5012455;28;45428;-91
2022/01/30 17:41:44;;;;;;;;;11.00;10.33;;;;;;;;4987910;28;46979;-93
2022/01/30 17:44:09;;;;;;;;;24.33;20.00;;;;;;;;5011961;28;45534;-91
2022/01/30 17:46:34;;;;;;;;;20.00;20.00;;;;;;;;5002899;28;45500;-92
2022/01/30 17:49:00;;;;;;;;;24.67;21.00;;;;;;;;5010101;28;45565;-93
2022/01/30 17:51:26;;;;;;;;;24.67;22.00;;;;;;;;4991243;28;48264;-93
2022/01/30 17:53:53;;;;;;;;;20.00;20.00;;;;;;;;4992827;28;45982;-93
2022/01/30 17:56:19;;;;;;;;;29.67;25.33;;;;;;;;4992139;28;45409;-94
2022/01/30 17:58:44;;;;;;;;;22.00;21.67;;;;;;;;4993285;28;46671;-94
2022/01/30 18:01:09;;;;;;;;;31.00;24.67;;;;;;;;4989313;28;47121;-93
2022/01/30 18:03:34;;;;;;;;;33.67;25.67;;;;;;;;4988904;28;45953;-92
2022/01/30 18:06:00;;;;;;;;;26.33;22.00;;;;;;;;5010657;28;45682;-92
2022/01/30 18:08:25;;;;;;;;;24.67;22.00;;;;;;;;4982825;28;45770;-94
2022/01/30 18:10:50;;;;;;;;;30.00;27.33;;;;;;;;4992027;28;48014;-91
2022/01/30 18:13:16;;;;;;;;;32.00;27.75;;;;;;;;5009815;28;45398;-92
2022/01/30 18:15:41;;;;;;;;;35.00;25.67;;;;;;;;5011510;28;45814;-92
2022/01/30 18:18:06;;;;;;;;;39.00;29.75;;;;;;;;4994940;28;45745;-96
2022/01/30 18:20:31;;;;;;;;;33.25;29.00;;;;;;;;4982935;28;47337;-91
2022/01/30 18:22:57;;;;;;;;;32.33;28.00;;;;;;;;5008378;28;45479;-93
2022/01/30 18:25:23;;;;;;;;;27.75;27.75;;;;;;;;5006343;28;45922;-91
2022/01/30 18:27:50;;;;;;;;;28.00;26.75;;;;;;;;5009475;28;46115;-91
2022/01/30 18:30:16;;;;;;;;;33.25;29.25;;;;;;;;4994965;28;47272;-90
2022/01/30 18:32:41;;;;;;;;;32.75;29.25;;;;;;;;4990897;28;45690;-90
2022/01/30 18:35:07;;;;;;;;;34.50;32.00;;;;;;;;4991337;28;45322;-90
2022/01/30 18:37:38;;;;;;;;;37.00;31.50;;;;;;;;4992839;28;45492;-90
2022/01/30 18:40:22;;;;;;;;;31.50;29.25;;;;;;;;4991017;28;48027;-91
2022/01/30 18:42:47;;;;;;;;;34.00;27.75;;;;;;;;4991009;28;45878;-92
2022/01/30 18:45:12;;;;;;;;;31.25;26.25;;;;;;;;5002538;28;45456;-93
2022/01/30 18:47:37;;;;;;;;;29.75;26.00;;;;;;;;5015796;28;45341;-91
2022/01/30 18:50:03;;;;;;;;;22.67;22.67;;;;;;;;5016612;28;46337;-93
2022/01/30 18:52:28;;;;;;;;;32.33;24.67;;;;;;;;5015653;28;46357;-94
2022/01/30 18:54:53;;;;;;;;;28.00;21.00;;;;;;;;5012222;28;44955;-93
2022/01/30 18:57:19;;;;;;;;;26.00;25.50;;;;;;;;5006008;28;45465;-94
2022/01/30 18:59:46;;;;;;;;;23.00;20.67;;;;;;;;5011381;28;47396;-93
2022/01/30 19:02:11;;;;;;;;;21.33;18.67;;;;;;;;4992631;28;45508;-92
2022/01/30 19:04:36;;;;;;;;;30.67;23.67;;;;;;;;4989918;28;45324;-93
2022/01/30 19:07:02;;;;;;;;;24.75;24.00;;;;;;;;4992208;28;45490;-90
2022/01/30 19:09:27;;;;;;;;;25.00;21.33;;;;;;;;5010997;28;45735;-90
2022/01/30 19:11:53;;;;;;;;;24.00;22.67;;;;;;;;5001260;28;45546;-89
2022/01/30 19:14:19;;;;;;;;;21.67;18.67;;;;;;;;4994119;28;45479;-93
2022/01/30 19:16:44;;;;;;;;;26.33;19.33;;;;;;;;4988669;28;45345;-95
2022/01/30 19:19:09;;;;;;;;;19.00;19.00;;;;;;;;4992090;28;47260;-96
2022/01/30 19:21:35;;;;;;;;;21.00;18.33;;;;;;;;4987314;28;45449;-93
2022/01/30 19:24:00;;;;;;;;;24.00;20.67;;;;;;;;4983230;28;45545;-93
2022/01/30 19:26:27;;;;;;;;;25.67;20.67;;;;;;;;4991674;28;45620;-91
2022/01/30 19:28:52;;;;;;;;;23.67;20.33;;;;;;;;4992427;28;47191;-93
2022/01/30 19:31:18;;;;;;;;;32.67;25.33;;;;;;;;4984272;28;46001;-92
2022/01/30 19:33:43;;;;;;;;;26.33;21.67;;;;;;;;4995260;28;45463;-95
2022/01/30 19:36:08;;;;;;;;;23.67;23.00;;;;;;;;4985108;28;45464;-92
2022/01/30 19:38:35;;;;;;;;;37.00;29.00;;;;;;;;5007030;28;47212;-93
2022/01/30 19:41:04;;;;;;;;;49.00;38.00;;;;;;;;4997199;28;45766;-95
2022/01/30 19:43:38;;;;;;;;;35.75;33.25;;;;;;;;4999713;28;45556;-95
2022/01/30 19:46:05;;;;;;;;;34.75;30.00;;;;;;;;4999393;28;45385;-93
2022/01/30 19:48:30;;;;;;;;;38.75;30.25;;;;;;;;4985658;28;48227;-93
2022/01/30 19:50:56;;;;;;;;;29.75;26.00;;;;;;;;4993540;28;45959;-93
2022/01/30 19:53:22;;;;;;;;;22.75;22.25;;;;;;;;4980421;28;46025;-93
2022/01/30 19:55:47;;;;;;;;;37.00;28.00;;;;;;;;4991523;28;45515;-93
2022/01/30 19:58:12;;;;;;;;;28.75;26.75;;;;;;;;4995945;28;47271;-93
2022/01/30 20:00:39;;;;;;;;;33.00;29.50;;;;;;;;4995540;28;45984;-93
2022/01/30 20:03:05;;;;;;;;;30.50;30.50;;;;;;;;4979629;28;45449;-93
2022/01/30 20:05:30;;;;;;;;;40.75;34.50;;;;;;;;4985198;28;45464;-93
2022/01/30 20:07:56;;;;;;;;;42.00;36.00;;;;;;;;4990082;28;47180;-94
2022/01/30 20:10:21;;;;;;;;;34.75;33.50;;;;;;;;4988372;28;45488;-93
2022/01/30 20:12:47;;;;;;;;;41.75;32.25;;;;;;;;4982347;28;45402;-92
2022/01/30 20:15:12;;;;;;;;;43.00;38.25;;;;;;;;5001737;28;45470;-93
2022/01/30 20:17:37;;;;;;;;;40.25;36.50;;;;;;;;4990188;28;48362;-94
2022/01/30 20:20:04;;;;;;;;;45.50;37.75;;;;;;;;5000465;28;45438;-93
2022/01/30 20:22:29;;;;;;;;;41.75;36.50;;;;;;;;4993865;28;45298;-95
2022/01/30 20:24:54;;;;;;;;;36.50;32.25;;;;;;;;4999220;28;45510;-94
2022/01/30 20:27:21;;;;;;;;;38.00;33.75;;;;;;;;4991934;28;48190;-93
2022/01/30 20:29:47;;;;;;;;;36.00;32.25;;;;;;;;4998245;28;45448;-94
2022/01/30 20:32:12;;;;;;;;;35.25;29.25;;;;;;;;4997748;28;47387;-93
2022/01/30 20:34:41;;;;;;;;;26.50;21.00;;;;;;;;4991171;28;45481;-94
2022/01/30 20:37:06;;;;;;;;;28.75;23.00;;;;;;;;4986282;28;48172;-93
2022/01/30 20:39:32;;;;;;;;;23.50;22.00;;;;;;;;4991173;28;45316;-94
2022/01/30 20:41:57;;;;;;;;;30.25;20.75;;;;;;;;4981369;28;45500;-93
2022/01/30 20:44:22;;;;;;;;;29.00;23.00;;;;;;;;4992960;28;45704;-93
2022/01/30 20:46:48;;;;;;;;;26.67;23.33;;;;;;;;4999163;28;48264;-93
2022/01/30 20:49:13;;;;;;;;;21.33;20.00;;;;;;;;4999448;28;45351;-93
2022/01/30 20:51:38;;;;;;;;;25.00;18.67;;;;;;;;5008608;28;45254;-93
2022/01/30 20:54:04;;;;;;;;;19.67;18.33;;;;;;;;5000229;28;45375;-94
2022/01/30 20:56:29;;;;;;;;;18.67;15.67;;;;;;;;5007491;28;47473;-94
2022/01/30 20:58:54;;;;;;;;;27.67;18.00;;;;;;;;4999634;28;45514;-94
2022/01/30 21:01:19;;;;;;;;;20.00;13.33;;;;;;;;4997298;28;45342;-93
2022/01/30 21:03:45;;;;;;;;;19.00;16.67;;;;;;;;4998989;28;45612;-93
2022/01/30 21:06:10;;;;;;;;;21.67;17.00;;;;;;;;4995080;28;47272;-93
2022/01/30 21:08:38;;;;;;;;;26.67;17.67;;;;;;;;5020277;28;45475;-94
2022/01/30 21:11:04;;;;;;;;;24.00;19.67;;;;;;;;4996410;28;45443;-93
2022/01/30 21:13:32;;;;;;;;;18.00;16.33;;;;;;;;4988126;28;45461;-93
2022/01/30 21:15:57;;;;;;;;;18.67;17.33;;;;;;;;4991430;28;47961;-93
2022/01/30 21:18:23;;;;;;;;;19.33;14.00;;;;;;;;4999218;28;45346;-92
2022/01/30 21:20:49;;;;;;;;;15.67;14.33;;;;;;;;4995407;28;45287;-93
2022/01/30 21:23:14;;;;;;;;;19.00;12.67;;;;;;;;4993983;28;45314;-93
2022/01/30 21:25:40;;;;;;;;;22.33;16.33;;;;;;;;4999895;28;47707;-92
2022/01/30 21:28:05;;;;;;;;;16.33;14.33;;;;;;;;4997114;28;45346;-94
2022/01/30 21:30:30;;;;;;;;;14.33;13.00;;;;;;;;4999314;28;45373;-93
2022/01/30 21:32:55;;;;;;;;;17.33;13.67;;;;;;;;4995033;28;45526;-93
2022/01/30 21:35:21;;;;;;;;;16.67;13.67;;;;;;;;4997854;28;47063;-92
2022/01/30 21:37:46;;;;;;;;;15.33;14.33;;;;;;;;4998199;28;45939;-93
2022/01/30 21:40:12;;;;;;;;;13.33;11.67;;;;;;;;4995400;28;45525;-95
2022/01/30 21:42:37;;;;;;;;;16.67;13.00;;;;;;;;4986614;28;46757;-94
2022/01/30 21:45:04;;;;;;;;;14.33;12.33;;;;;;;;4997380;28;47125;-94
2022/01/30 21:47:30;;;;;;;;;14.67;12.00;;;;;;;;4997811;28;45534;-94
2022/01/30 21:49:55;;;;;;;;;12.67;9.33;;;;;;;;4994961;28;45279;-94
2022/01/30 21:52:23;;;;;;;;;12.00;11.67;;;;;;;;4994422;28;45541;-94
2022/01/30 21:54:48;;;;;;;;;15.67;11.67;;;;;;;;4996510;28;48564;-95
2022/01/30 21:57:13;;;;;;;;;17.00;13.67;;;;;;;;4998255;28;45827;-94
2022/01/30 21:59:39;;;;;;;;;14.33;12.00;;;;;;;;4997599;28;45497;-95
2022/01/30 22:02:04;;;;;;;;;14.67;11.33;;;;;;;;4997670;28;45270;-94
2022/01/30 22:04:29;;;;;;;;;15.33;9.67;;;;;;;;4998857;28;47204;-95
2022/01/30 22:06:54;;;;;;;;;15.00;12.67;;;;;;;;4981459;28;45426;-94
2022/01/30 22:09:20;;;;;;;;;14.67;11.33;;;;;;;;4997847;28;45742;-94
2022/01/30 22:11:47;;;;;;;;;15.67;12.67;;;;;;;;4998549;28;45900;-95